sensor_id;sensor_type;location;lat;lon;timestamp;P1;durP1;ratioP1;P2;durP2;ratioP2
84713;SDS011;74938;42.658;23.248;2024-02-26T00:01:23;14.10;;;7.13;;
84713;SDS011;74938;42.658;23.248;2024-02-26T00:03:48;15.98;;;7.25;;
84713;SDS011;74938;42.658;23.248;2024-02-26T00:06:14;11.35;;;6.10;;
84713;SDS011;74938;42.658;23.248;2024-02-26T00:08:39;14.95;;;6.30;;
84713;SDS011;74938;42.658;23.248;2024-02-26T00:11:04;15.52;;;6.70;;
84713;SDS011;74938;42.658;23.248;2024-02-26T00:13:30;16.00;;;7.15;;
84713;SDS011;74938;42.658;23.248;2024-02-26T00:15:55;12.63;;;7.55;;
84713;SDS011;74938;42.658;23.248;2024-02-26T00:18:20;16.17;;;7.63;;
84713;SDS011;74938;42.658;23.248;2024-02-26T00:20:46;12.60;;;6.75;;
84713;SDS011;74938;42.658;23.248;2024-02-26T00:23:11;17.75;;;7.43;;
84713;SDS011;74938;42.658;23.248;2024-02-26T00:25:40;16.92;;;7.75;;
84713;SDS011;74938;42.658;23.248;2024-02-26T00:28:07;16.45;;;7.80;;
84713;SDS011;74938;42.658;23.248;2024-02-26T00:30:33;16.23;;;7.45;;
84713;SDS011;74938;42.658;23.248;2024-02-26T00:32:58;14.65;;;7.57;;
84713;SDS011;74938;42.658;23.248;2024-02-26T00:35:24;21.02;;;8.35;;
84713;SDS011;74938;42.658;23.248;2024-02-26T00:37:49;23.80;;;8.00;;
84713;SDS011;74938;42.658;23.248;2024-02-26T00:40:15;18.02;;;8.23;;
84713;SDS011;74938;42.658;23.248;2024-02-26T00:42:40;19.23;;;8.38;;
84713;SDS011;74938;42.658;23.248;2024-02-26T00:45:10;18.98;;;8.93;;
84713;SDS011;74938;42.658;23.248;2024-02-26T00:47:37;17.80;;;8.82;;
84713;SDS011;74938;42.658;23.248;2024-02-26T00:50:02;15.95;;;9.07;;
84713;SDS011;74938;42.658;23.248;2024-02-26T00:52:27;15.98;;;7.65;;
84713;SDS011;74938;42.658;23.248;2024-02-26T00:54:53;15.27;;;8.35;;
84713;SDS011;74938;42.658;23.248;2024-02-26T00:57:18;18.02;;;7.18;;
84713;SDS011;74938;42.658;23.248;2024-02-26T00:59:44;18.55;;;8.73;;
84713;SDS011;74938;42.658;23.248;2024-02-26T01:02:09;16.38;;;8.23;;
84713;SDS011;74938;42.658;23.248;2024-02-26T01:04:34;14.50;;;7.55;;
84713;SDS011;74938;42.658;23.248;2024-02-26T01:07:00;15.77;;;7.45;;
84713;SDS011;74938;42.658;23.248;2024-02-26T01:09:25;15.60;;;7.75;;
84713;SDS011;74938;42.658;23.248;2024-02-26T01:11:50;16.17;;;8.23;;
84713;SDS011;74938;42.658;23.248;2024-02-26T01:14:16;16.92;;;8.23;;
84713;SDS011;74938;42.658;23.248;2024-02-26T01:16:41;14.38;;;6.97;;
84713;SDS011;74938;42.658;23.248;2024-02-26T01:19:06;14.88;;;7.55;;
84713;SDS011;74938;42.658;23.248;2024-02-26T01:21:32;15.02;;;7.10;;
84713;SDS011;74938;42.658;23.248;2024-02-26T01:23:57;13.70;;;7.35;;
84713;SDS011;74938;42.658;23.248;2024-02-26T01:26:22;16.25;;;7.50;;
84713;SDS011;74938;42.658;23.248;2024-02-26T01:28:48;12.68;;;7.07;;
84713;SDS011;74938;42.658;23.248;2024-02-26T01:31:13;16.38;;;8.57;;
84713;SDS011;74938;42.658;23.248;2024-02-26T01:33:39;14.13;;;7.20;;
84713;SDS011;74938;42.658;23.248;2024-02-26T01:36:05;16.98;;;8.00;;
84713;SDS011;74938;42.658;23.248;2024-02-26T01:38:30;13.98;;;7.43;;
84713;SDS011;74938;42.658;23.248;2024-02-26T01:40:56;17.33;;;8.30;;
84713;SDS011;74938;42.658;23.248;2024-02-26T01:43:21;15.05;;;7.15;;
84713;SDS011;74938;42.658;23.248;2024-02-26T01:45:47;13.60;;;7.03;;
84713;SDS011;74938;42.658;23.248;2024-02-26T01:48:12;14.80;;;7.00;;
84713;SDS011;74938;42.658;23.248;2024-02-26T01:50:37;11.52;;;6.15;;
84713;SDS011;74938;42.658;23.248;2024-02-26T01:53:03;13.80;;;7.03;;
84713;SDS011;74938;42.658;23.248;2024-02-26T01:55:29;15.77;;;6.78;;
84713;SDS011;74938;42.658;23.248;2024-02-26T02:00:24;12.07;;;5.97;;
84713;SDS011;74938;42.658;23.248;2024-02-26T02:02:49;13.65;;;6.40;;
84713;SDS011;74938;42.658;23.248;2024-02-26T02:05:16;13.68;;;6.13;;
84713;SDS011;74938;42.658;23.248;2024-02-26T02:07:45;15.57;;;6.00;;
84713;SDS011;74938;42.658;23.248;2024-02-26T02:10:11;12.55;;;6.25;;
84713;SDS011;74938;42.658;23.248;2024-02-26T02:12:37;15.07;;;6.45;;
84713;SDS011;74938;42.658;23.248;2024-02-26T02:15:05;14.55;;;5.85;;
84713;SDS011;74938;42.658;23.248;2024-02-26T02:17:31;14.80;;;5.95;;
84713;SDS011;74938;42.658;23.248;2024-02-26T02:19:56;14.90;;;7.10;;
84713;SDS011;74938;42.658;23.248;2024-02-26T02:22:22;15.13;;;7.68;;
84713;SDS011;74938;42.658;23.248;2024-02-26T02:24:48;17.55;;;7.60;;
84713;SDS011;74938;42.658;23.248;2024-02-26T02:27:14;16.67;;;6.95;;
84713;SDS011;74938;42.658;23.248;2024-02-26T02:29:39;15.93;;;6.78;;
84713;SDS011;74938;42.658;23.248;2024-02-26T02:32:05;12.75;;;6.43;;
84713;SDS011;74938;42.658;23.248;2024-02-26T02:34:31;13.57;;;7.38;;
84713;SDS011;74938;42.658;23.248;2024-02-26T02:36:59;14.60;;;6.53;;
84713;SDS011;74938;42.658;23.248;2024-02-26T02:39:24;12.75;;;7.47;;
84713;SDS011;74938;42.658;23.248;2024-02-26T02:41:50;15.38;;;6.63;;
84713;SDS011;74938;42.658;23.248;2024-02-26T02:44:15;16.25;;;6.70;;
84713;SDS011;74938;42.658;23.248;2024-02-26T02:46:40;12.52;;;6.63;;
84713;SDS011;74938;42.658;23.248;2024-02-26T02:49:09;14.48;;;7.22;;
84713;SDS011;74938;42.658;23.248;2024-02-26T02:51:39;15.10;;;6.68;;
84713;SDS011;74938;42.658;23.248;2024-02-26T02:54:04;13.05;;;6.45;;
84713;SDS011;74938;42.658;23.248;2024-02-26T02:56:30;12.10;;;6.57;;
84713;SDS011;74938;42.658;23.248;2024-02-26T02:58:55;13.73;;;6.88;;
84713;SDS011;74938;42.658;23.248;2024-02-26T03:01:20;13.60;;;7.10;;
84713;SDS011;74938;42.658;23.248;2024-02-26T03:03:46;12.80;;;6.80;;
84713;SDS011;74938;42.658;23.248;2024-02-26T03:06:11;14.05;;;6.50;;
84713;SDS011;74938;42.658;23.248;2024-02-26T03:08:37;12.68;;;6.93;;
84713;SDS011;74938;42.658;23.248;2024-02-26T03:11:04;13.10;;;6.75;;
84713;SDS011;74938;42.658;23.248;2024-02-26T03:13:30;15.88;;;7.85;;
84713;SDS011;74938;42.658;23.248;2024-02-26T03:15:55;17.15;;;7.32;;
84713;SDS011;74938;42.658;23.248;2024-02-26T03:18:20;12.88;;;7.10;;
84713;SDS011;74938;42.658;23.248;2024-02-26T03:20:46;12.10;;;6.53;;
84713;SDS011;74938;42.658;23.248;2024-02-26T03:23:12;16.05;;;7.22;;
84713;SDS011;74938;42.658;23.248;2024-02-26T03:25:41;11.07;;;5.90;;
84713;SDS011;74938;42.658;23.248;2024-02-26T03:28:11;15.90;;;5.90;;
84713;SDS011;74938;42.658;23.248;2024-02-26T03:30:37;12.48;;;5.72;;
84713;SDS011;74938;42.658;23.248;2024-02-26T03:33:03;16.50;;;6.78;;
84713;SDS011;74938;42.658;23.248;2024-02-26T03:35:28;14.00;;;7.53;;
84713;SDS011;74938;42.658;23.248;2024-02-26T03:37:54;13.95;;;6.18;;
84713;SDS011;74938;42.658;23.248;2024-02-26T03:40:19;11.27;;;6.43;;
84713;SDS011;74938;42.658;23.248;2024-02-26T03:42:44;15.65;;;6.68;;
84713;SDS011;74938;42.658;23.248;2024-02-26T03:45:10;14.70;;;7.50;;
84713;SDS011;74938;42.658;23.248;2024-02-26T03:47:37;20.63;;;8.55;;
84713;SDS011;74938;42.658;23.248;2024-02-26T03:50:05;16.92;;;7.80;;
84713;SDS011;74938;42.658;23.248;2024-02-26T03:52:31;14.63;;;7.78;;
84713;SDS011;74938;42.658;23.248;2024-02-26T03:54:57;19.45;;;8.10;;
84713;SDS011;74938;42.658;23.248;2024-02-26T03:57:23;16.77;;;7.93;;
84713;SDS011;74938;42.658;23.248;2024-02-26T03:59:48;18.73;;;9.73;;
84713;SDS011;74938;42.658;23.248;2024-02-26T04:02:13;16.38;;;6.88;;
84713;SDS011;74938;42.658;23.248;2024-02-26T04:04:39;17.85;;;6.90;;
84713;SDS011;74938;42.658;23.248;2024-02-26T04:07:04;14.68;;;7.78;;
84713;SDS011;74938;42.658;23.248;2024-02-26T04:09:32;16.23;;;7.85;;
84713;SDS011;74938;42.658;23.248;2024-02-26T04:14:24;12.40;;;6.43;;
84713;SDS011;74938;42.658;23.248;2024-02-26T04:16:49;20.27;;;7.40;;
84713;SDS011;74938;42.658;23.248;2024-02-26T04:19:17;11.98;;;6.20;;
84713;SDS011;74938;42.658;23.248;2024-02-26T04:21:42;14.88;;;7.00;;
84713;SDS011;74938;42.658;23.248;2024-02-26T04:24:08;14.02;;;7.35;;
84713;SDS011;74938;42.658;23.248;2024-02-26T04:26:34;15.15;;;6.32;;
84713;SDS011;74938;42.658;23.248;2024-02-26T04:28:59;13.10;;;6.55;;
84713;SDS011;74938;42.658;23.248;2024-02-26T04:31:25;14.80;;;6.68;;
84713;SDS011;74938;42.658;23.248;2024-02-26T04:33:51;12.80;;;6.88;;
84713;SDS011;74938;42.658;23.248;2024-02-26T04:36:16;11.82;;;6.25;;
84713;SDS011;74938;42.658;23.248;2024-02-26T04:38:42;13.73;;;6.63;;
84713;SDS011;74938;42.658;23.248;2024-02-26T04:41:08;13.25;;;6.05;;
84713;SDS011;74938;42.658;23.248;2024-02-26T04:43:34;12.00;;;6.03;;
84713;SDS011;74938;42.658;23.248;2024-02-26T04:45:59;13.98;;;5.88;;
84713;SDS011;74938;42.658;23.248;2024-02-26T04:48:24;10.23;;;5.90;;
84713;SDS011;74938;42.658;23.248;2024-02-26T04:50:50;12.63;;;5.97;;
84713;SDS011;74938;42.658;23.248;2024-02-26T04:53:15;13.10;;;6.00;;
84713;SDS011;74938;42.658;23.248;2024-02-26T04:55:40;13.10;;;7.63;;
84713;SDS011;74938;42.658;23.248;2024-02-26T04:58:06;12.00;;;6.70;;
84713;SDS011;74938;42.658;23.248;2024-02-26T05:00:31;15.27;;;6.60;;
84713;SDS011;74938;42.658;23.248;2024-02-26T05:02:56;16.70;;;6.72;;
84713;SDS011;74938;42.658;23.248;2024-02-26T05:05:22;14.05;;;6.47;;
84713;SDS011;74938;42.658;23.248;2024-02-26T05:07:47;12.35;;;5.85;;
84713;SDS011;74938;42.658;23.248;2024-02-26T05:10:12;15.73;;;7.15;;
84713;SDS011;74938;42.658;23.248;2024-02-26T05:12:38;15.65;;;7.55;;
84713;SDS011;74938;42.658;23.248;2024-02-26T05:15:03;13.45;;;7.10;;
84713;SDS011;74938;42.658;23.248;2024-02-26T05:17:29;15.60;;;6.80;;
84713;SDS011;74938;42.658;23.248;2024-02-26T05:19:55;15.63;;;7.90;;
84713;SDS011;74938;42.658;23.248;2024-02-26T05:22:20;14.18;;;7.13;;
84713;SDS011;74938;42.658;23.248;2024-02-26T05:24:48;15.45;;;8.00;;
84713;SDS011;74938;42.658;23.248;2024-02-26T05:27:14;16.83;;;8.77;;
84713;SDS011;74938;42.658;23.248;2024-02-26T05:29:39;18.55;;;9.35;;
84713;SDS011;74938;42.658;23.248;2024-02-26T05:32:05;16.40;;;8.30;;
84713;SDS011;74938;42.658;23.248;2024-02-26T05:34:31;16.77;;;8.55;;
84713;SDS011;74938;42.658;23.248;2024-02-26T05:36:57;16.20;;;9.13;;
84713;SDS011;74938;42.658;23.248;2024-02-26T05:39:22;17.15;;;8.93;;
84713;SDS011;74938;42.658;23.248;2024-02-26T05:41:48;15.70;;;8.38;;
84713;SDS011;74938;42.658;23.248;2024-02-26T05:44:14;17.15;;;8.15;;
84713;SDS011;74938;42.658;23.248;2024-02-26T05:46:41;23.88;;;10.32;;
84713;SDS011;74938;42.658;23.248;2024-02-26T05:49:07;24.27;;;10.20;;
84713;SDS011;74938;42.658;23.248;2024-02-26T05:51:32;17.45;;;9.82;;
84713;SDS011;74938;42.658;23.248;2024-02-26T05:53:58;17.83;;;9.48;;
84713;SDS011;74938;42.658;23.248;2024-02-26T05:56:23;20.45;;;10.30;;
84713;SDS011;74938;42.658;23.248;2024-02-26T05:58:48;21.02;;;10.95;;
84713;SDS011;74938;42.658;23.248;2024-02-26T06:01:17;20.75;;;11.32;;
84713;SDS011;74938;42.658;23.248;2024-02-26T06:03:43;24.65;;;11.18;;
84713;SDS011;74938;42.658;23.248;2024-02-26T06:06:10;19.02;;;11.30;;
84713;SDS011;74938;42.658;23.248;2024-02-26T06:08:35;24.95;;;12.45;;
84713;SDS011;74938;42.658;23.248;2024-02-26T06:11:04;27.50;;;13.35;;
84713;SDS011;74938;42.658;23.248;2024-02-26T06:13:31;24.48;;;12.80;;
84713;SDS011;74938;42.658;23.248;2024-02-26T06:15:57;33.42;;;14.88;;
84713;SDS011;74938;42.658;23.248;2024-02-26T06:18:22;31.55;;;15.43;;
84713;SDS011;74938;42.658;23.248;2024-02-26T06:20:47;32.53;;;14.57;;
84713;SDS011;74938;42.658;23.248;2024-02-26T06:23:13;36.60;;;16.85;;
84713;SDS011;74938;42.658;23.248;2024-02-26T06:25:38;30.88;;;15.60;;
84713;SDS011;74938;42.658;23.248;2024-02-26T06:28:04;32.10;;;14.80;;
84713;SDS011;74938;42.658;23.248;2024-02-26T06:30:29;30.73;;;15.48;;
84713;SDS011;74938;42.658;23.248;2024-02-26T06:32:55;31.40;;;14.75;;
84713;SDS011;74938;42.658;23.248;2024-02-26T06:35:20;34.63;;;17.02;;
84713;SDS011;74938;42.658;23.248;2024-02-26T06:37:46;35.50;;;15.30;;
84713;SDS011;74938;42.658;23.248;2024-02-26T06:40:11;31.27;;;14.95;;
84713;SDS011;74938;42.658;23.248;2024-02-26T06:42:36;48.05;;;24.17;;
84713;SDS011;74938;42.658;23.248;2024-02-26T06:45:02;32.85;;;16.70;;
84713;SDS011;74938;42.658;23.248;2024-02-26T06:47:29;33.70;;;16.45;;
84713;SDS011;74938;42.658;23.248;2024-02-26T06:49:54;35.17;;;16.48;;
84713;SDS011;74938;42.658;23.248;2024-02-26T06:52:23;49.00;;;26.20;;
84713;SDS011;74938;42.658;23.248;2024-02-26T06:54:49;36.70;;;19.63;;
84713;SDS011;74938;42.658;23.248;2024-02-26T06:57:16;35.03;;;16.20;;
84713;SDS011;74938;42.658;23.248;2024-02-26T06:59:41;31.45;;;16.20;;
84713;SDS011;74938;42.658;23.248;2024-02-26T07:02:10;33.95;;;17.95;;
84713;SDS011;74938;42.658;23.248;2024-02-26T07:04:36;37.45;;;19.77;;
84713;SDS011;74938;42.658;23.248;2024-02-26T07:07:02;33.45;;;18.52;;
84713;SDS011;74938;42.658;23.248;2024-02-26T07:09:27;35.00;;;18.45;;
84713;SDS011;74938;42.658;23.248;2024-02-26T07:11:53;39.33;;;19.55;;
84713;SDS011;74938;42.658;23.248;2024-02-26T07:14:18;33.70;;;18.20;;
84713;SDS011;74938;42.658;23.248;2024-02-26T07:16:43;36.08;;;18.90;;
84713;SDS011;74938;42.658;23.248;2024-02-26T07:19:09;34.28;;;17.92;;
84713;SDS011;74938;42.658;23.248;2024-02-26T07:21:34;31.80;;;17.27;;
84713;SDS011;74938;42.658;23.248;2024-02-26T07:23:59;33.33;;;18.25;;
84713;SDS011;74938;42.658;23.248;2024-02-26T07:26:25;34.17;;;18.42;;
84713;SDS011;74938;42.658;23.248;2024-02-26T07:28:51;34.95;;;18.80;;
84713;SDS011;74938;42.658;23.248;2024-02-26T07:31:19;36.05;;;19.38;;
84713;SDS011;74938;42.658;23.248;2024-02-26T07:33:45;37.60;;;17.38;;
84713;SDS011;74938;42.658;23.248;2024-02-26T07:36:10;34.58;;;18.05;;
84713;SDS011;74938;42.658;23.248;2024-02-26T07:38:36;36.88;;;17.73;;
84713;SDS011;74938;42.658;23.248;2024-02-26T07:41:02;37.83;;;18.33;;
84713;SDS011;74938;42.658;23.248;2024-02-26T07:43:28;33.63;;;17.58;;
84713;SDS011;74938;42.658;23.248;2024-02-26T07:45:53;38.33;;;18.77;;
84713;SDS011;74938;42.658;23.248;2024-02-26T07:48:18;39.83;;;18.90;;
84713;SDS011;74938;42.658;23.248;2024-02-26T07:50:44;41.67;;;19.80;;
84713;SDS011;74938;42.658;23.248;2024-02-26T07:53:09;31.00;;;18.15;;
84713;SDS011;74938;42.658;23.248;2024-02-26T07:55:35;33.78;;;18.50;;
84713;SDS011;74938;42.658;23.248;2024-02-26T07:58:00;36.15;;;19.55;;
84713;SDS011;74938;42.658;23.248;2024-02-26T08:00:25;40.70;;;21.50;;
84713;SDS011;74938;42.658;23.248;2024-02-26T08:02:51;40.38;;;20.63;;
84713;SDS011;74938;42.658;23.248;2024-02-26T08:05:17;37.10;;;19.98;;
84713;SDS011;74938;42.658;23.248;2024-02-26T08:07:42;34.55;;;20.15;;
84713;SDS011;74938;42.658;23.248;2024-02-26T08:10:08;38.05;;;18.35;;
84713;SDS011;74938;42.658;23.248;2024-02-26T08:12:33;34.92;;;19.38;;
84713;SDS011;74938;42.658;23.248;2024-02-26T08:14:59;36.60;;;18.98;;
84713;SDS011;74938;42.658;23.248;2024-02-26T08:17:25;32.40;;;17.67;;
84713;SDS011;74938;42.658;23.248;2024-02-26T08:19:52;35.50;;;17.80;;
84713;SDS011;74938;42.658;23.248;2024-02-26T08:22:17;31.40;;;17.13;;
84713;SDS011;74938;42.658;23.248;2024-02-26T08:24:43;33.90;;;16.75;;
84713;SDS011;74938;42.658;23.248;2024-02-26T08:27:08;38.28;;;16.83;;
84713;SDS011;74938;42.658;23.248;2024-02-26T08:29:34;32.97;;;16.20;;
84713;SDS011;74938;42.658;23.248;2024-02-26T08:31:59;30.52;;;17.10;;
84713;SDS011;74938;42.658;23.248;2024-02-26T08:34:25;25.83;;;14.40;;
84713;SDS011;74938;42.658;23.248;2024-02-26T08:36:51;38.80;;;17.60;;
84713;SDS011;74938;42.658;23.248;2024-02-26T08:39:16;33.80;;;18.10;;
84713;SDS011;74938;42.658;23.248;2024-02-26T08:41:42;28.50;;;17.45;;
84713;SDS011;74938;42.658;23.248;2024-02-26T08:44:08;36.20;;;18.33;;
84713;SDS011;74938;42.658;23.248;2024-02-26T08:46:34;33.78;;;16.45;;
84713;SDS011;74938;42.658;23.248;2024-02-26T08:48:59;31.10;;;18.60;;
84713;SDS011;74938;42.658;23.248;2024-02-26T08:51:25;38.88;;;20.00;;
84713;SDS011;74938;42.658;23.248;2024-02-26T08:53:50;34.17;;;20.27;;
84713;SDS011;74938;42.658;23.248;2024-02-26T08:56:16;39.03;;;21.23;;
84713;SDS011;74938;42.658;23.248;2024-02-26T08:58:42;45.90;;;24.65;;
84713;SDS011;74938;42.658;23.248;2024-02-26T09:01:08;46.28;;;23.95;;
84713;SDS011;74938;42.658;23.248;2024-02-26T09:03:34;47.55;;;25.95;;
84713;SDS011;74938;42.658;23.248;2024-02-26T09:05:59;49.47;;;26.25;;
84713;SDS011;74938;42.658;23.248;2024-02-26T09:08:25;45.47;;;25.48;;
84713;SDS011;74938;42.658;23.248;2024-02-26T09:10:50;59.10;;;28.15;;
84713;SDS011;74938;42.658;23.248;2024-02-26T09:13:16;46.67;;;22.33;;
84713;SDS011;74938;42.658;23.248;2024-02-26T09:15:41;44.13;;;23.45;;
84713;SDS011;74938;42.658;23.248;2024-02-26T09:18:07;42.72;;;22.00;;
84713;SDS011;74938;42.658;23.248;2024-02-26T09:20:32;40.17;;;21.92;;
84713;SDS011;74938;42.658;23.248;2024-02-26T09:22:57;40.10;;;21.33;;
84713;SDS011;74938;42.658;23.248;2024-02-26T09:25:23;36.40;;;20.73;;
84713;SDS011;74938;42.658;23.248;2024-02-26T09:27:48;43.38;;;22.65;;
84713;SDS011;74938;42.658;23.248;2024-02-26T09:30:14;43.53;;;20.70;;
84713;SDS011;74938;42.658;23.248;2024-02-26T09:32:39;35.38;;;19.75;;
84713;SDS011;74938;42.658;23.248;2024-02-26T09:35:05;32.70;;;18.35;;
84713;SDS011;74938;42.658;23.248;2024-02-26T09:37:31;37.88;;;19.55;;
84713;SDS011;74938;42.658;23.248;2024-02-26T09:39:57;38.17;;;18.13;;
84713;SDS011;74938;42.658;23.248;2024-02-26T09:42:24;41.80;;;19.55;;
84713;SDS011;74938;42.658;23.248;2024-02-26T09:44:51;37.05;;;18.58;;
84713;SDS011;74938;42.658;23.248;2024-02-26T09:47:24;34.25;;;18.98;;
84713;SDS011;74938;42.658;23.248;2024-02-26T09:49:52;36.65;;;19.10;;
84713;SDS011;74938;42.658;23.248;2024-02-26T09:52:18;39.45;;;18.80;;
84713;SDS011;74938;42.658;23.248;2024-02-26T09:54:48;32.85;;;18.30;;
84713;SDS011;74938;42.658;23.248;2024-02-26T09:57:13;33.70;;;18.67;;
84713;SDS011;74938;42.658;23.248;2024-02-26T09:59:42;29.98;;;16.13;;
84713;SDS011;74938;42.658;23.248;2024-02-26T10:02:11;37.47;;;18.42;;
84713;SDS011;74938;42.658;23.248;2024-02-26T10:04:39;35.97;;;17.48;;
84713;SDS011;74938;42.658;23.248;2024-02-26T10:07:06;24.80;;;12.50;;
84713;SDS011;74938;42.658;23.248;2024-02-26T10:09:35;8.52;;;4.78;;
84713;SDS011;74938;42.658;23.248;2024-02-26T10:12:01;10.45;;;4.43;;
84713;SDS011;74938;42.658;23.248;2024-02-26T10:14:26;8.93;;;4.93;;
84713;SDS011;74938;42.658;23.248;2024-02-26T10:16:52;9.32;;;4.55;;
84713;SDS011;74938;42.658;23.248;2024-02-26T10:19:30;9.82;;;4.75;;
84713;SDS011;74938;42.658;23.248;2024-02-26T10:21:56;9.95;;;5.20;;
84713;SDS011;74938;42.658;23.248;2024-02-26T10:24:23;11.45;;;5.45;;
84713;SDS011;74938;42.658;23.248;2024-02-26T10:26:49;14.60;;;7.60;;
84713;SDS011;74938;42.658;23.248;2024-02-26T10:29:14;10.32;;;5.40;;
84713;SDS011;74938;42.658;23.248;2024-02-26T10:31:43;8.07;;;4.55;;
84713;SDS011;74938;42.658;23.248;2024-02-26T10:34:08;7.25;;;4.95;;
84713;SDS011;74938;42.658;23.248;2024-02-26T10:36:34;9.80;;;5.10;;
84713;SDS011;74938;42.658;23.248;2024-02-26T10:39:09;9.38;;;5.15;;
84713;SDS011;74938;42.658;23.248;2024-02-26T10:41:37;8.93;;;4.53;;
84713;SDS011;74938;42.658;23.248;2024-02-26T10:44:03;10.02;;;5.20;;
84713;SDS011;74938;42.658;23.248;2024-02-26T10:46:29;13.73;;;8.20;;
84713;SDS011;74938;42.658;23.248;2024-02-26T10:48:54;8.05;;;4.82;;
84713;SDS011;74938;42.658;23.248;2024-02-26T10:51:28;14.77;;;4.75;;
84713;SDS011;74938;42.658;23.248;2024-02-26T10:53:55;11.02;;;4.95;;
84713;SDS011;74938;42.658;23.248;2024-02-26T10:56:26;11.25;;;5.53;;
84713;SDS011;74938;42.658;23.248;2024-02-26T10:58:53;11.18;;;5.25;;
84713;SDS011;74938;42.658;23.248;2024-02-26T11:01:20;7.95;;;5.05;;
84713;SDS011;74938;42.658;23.248;2024-02-26T11:03:51;8.82;;;4.68;;
84713;SDS011;74938;42.658;23.248;2024-02-26T11:06:18;8.05;;;5.10;;
84713;SDS011;74938;42.658;23.248;2024-02-26T11:08:47;7.47;;;4.72;;
84713;SDS011;74938;42.658;23.248;2024-02-26T11:11:14;8.15;;;4.50;;
84713;SDS011;74938;42.658;23.248;2024-02-26T11:13:40;7.25;;;4.68;;
84713;SDS011;74938;42.658;23.248;2024-02-26T11:16:11;10.15;;;4.32;;
84713;SDS011;74938;42.658;23.248;2024-02-26T11:18:37;11.30;;;6.07;;
84713;SDS011;74938;42.658;23.248;2024-02-26T11:21:06;9.23;;;5.72;;
84713;SDS011;74938;42.658;23.248;2024-02-26T11:23:33;8.88;;;5.57;;
84713;SDS011;74938;42.658;23.248;2024-02-26T11:26:01;8.88;;;5.18;;
84713;SDS011;74938;42.658;23.248;2024-02-26T11:28:29;9.52;;;5.93;;
84713;SDS011;74938;42.658;23.248;2024-02-26T11:30:57;10.32;;;5.22;;
84713;SDS011;74938;42.658;23.248;2024-02-26T11:33:25;11.70;;;5.30;;
84713;SDS011;74938;42.658;23.248;2024-02-26T11:35:53;10.60;;;5.63;;
84713;SDS011;74938;42.658;23.248;2024-02-26T11:38:23;9.52;;;5.30;;
84713;SDS011;74938;42.658;23.248;2024-02-26T11:40:50;8.68;;;4.30;;
84713;SDS011;74938;42.658;23.248;2024-02-26T11:43:18;10.65;;;5.13;;
84713;SDS011;74938;42.658;23.248;2024-02-26T11:48:13;11.18;;;5.35;;
84713;SDS011;74938;42.658;23.248;2024-02-26T11:50:48;10.73;;;5.18;;
84713;SDS011;74938;42.658;23.248;2024-02-26T11:55:46;8.93;;;5.22;;
84713;SDS011;74938;42.658;23.248;2024-02-26T11:58:12;9.70;;;5.05;;
84713;SDS011;74938;42.658;23.248;2024-02-26T12:00:39;9.75;;;5.07;;
84713;SDS011;74938;42.658;23.248;2024-02-26T12:03:05;7.72;;;4.63;;
84713;SDS011;74938;42.658;23.248;2024-02-26T12:05:33;8.68;;;5.00;;
84713;SDS011;74938;42.658;23.248;2024-02-26T12:08:05;8.40;;;4.70;;
84713;SDS011;74938;42.658;23.248;2024-02-26T12:10:33;11.27;;;4.72;;
84713;SDS011;74938;42.658;23.248;2024-02-26T12:13:13;9.27;;;4.45;;
84713;SDS011;74938;42.658;23.248;2024-02-26T12:15:43;8.82;;;4.30;;
84713;SDS011;74938;42.658;23.248;2024-02-26T12:18:20;9.35;;;4.85;;
84713;SDS011;74938;42.658;23.248;2024-02-26T12:20:46;7.38;;;4.35;;
84713;SDS011;74938;42.658;23.248;2024-02-26T12:23:15;9.82;;;3.90;;
84713;SDS011;74938;42.658;23.248;2024-02-26T12:25:44;11.13;;;4.55;;
84713;SDS011;74938;42.658;23.248;2024-02-26T12:28:09;9.23;;;4.85;;
84713;SDS011;74938;42.658;23.248;2024-02-26T12:30:35;9.20;;;4.72;;
84713;SDS011;74938;42.658;23.248;2024-02-26T12:33:00;8.48;;;4.60;;
84713;SDS011;74938;42.658;23.248;2024-02-26T12:35:28;9.10;;;4.47;;
84713;SDS011;74938;42.658;23.248;2024-02-26T12:37:56;9.32;;;4.57;;
84713;SDS011;74938;42.658;23.248;2024-02-26T12:40:22;8.57;;;4.20;;
84713;SDS011;74938;42.658;23.248;2024-02-26T12:42:47;7.60;;;4.70;;
84713;SDS011;74938;42.658;23.248;2024-02-26T12:45:13;9.55;;;5.53;;
84713;SDS011;74938;42.658;23.248;2024-02-26T12:47:41;8.27;;;4.82;;
84713;SDS011;74938;42.658;23.248;2024-02-26T12:50:07;8.00;;;4.90;;
84713;SDS011;74938;42.658;23.248;2024-02-26T12:52:42;9.93;;;5.97;;
84713;SDS011;74938;42.658;23.248;2024-02-26T12:55:09;7.25;;;4.13;;
84713;SDS011;74938;42.658;23.248;2024-02-26T12:57:38;9.45;;;5.05;;
84713;SDS011;74938;42.658;23.248;2024-02-26T13:00:05;15.70;;;4.22;;
84713;SDS011;74938;42.658;23.248;2024-02-26T13:02:34;7.05;;;4.15;;
84713;SDS011;74938;42.658;23.248;2024-02-26T13:05:01;9.57;;;4.20;;
84713;SDS011;74938;42.658;23.248;2024-02-26T13:07:28;9.10;;;4.38;;
84713;SDS011;74938;42.658;23.248;2024-02-26T13:09:53;8.82;;;4.53;;
84713;SDS011;74938;42.658;23.248;2024-02-26T13:12:19;8.00;;;4.45;;
84713;SDS011;74938;42.658;23.248;2024-02-26T13:14:45;11.63;;;6.10;;
84713;SDS011;74938;42.658;23.248;2024-02-26T13:17:10;9.43;;;5.32;;
84713;SDS011;74938;42.658;23.248;2024-02-26T13:19:36;14.43;;;4.75;;
84713;SDS011;74938;42.658;23.248;2024-02-26T13:22:05;9.02;;;4.10;;
84713;SDS011;74938;42.658;23.248;2024-02-26T13:24:31;9.90;;;5.68;;
84713;SDS011;74938;42.658;23.248;2024-02-26T13:27:00;8.43;;;4.63;;
84713;SDS011;74938;42.658;23.248;2024-02-26T13:29:28;6.45;;;3.47;;
84713;SDS011;74938;42.658;23.248;2024-02-26T13:31:59;6.82;;;3.17;;
84713;SDS011;74938;42.658;23.248;2024-02-26T13:34:28;7.80;;;3.70;;
84713;SDS011;74938;42.658;23.248;2024-02-26T13:36:55;5.82;;;3.50;;
84713;SDS011;74938;42.658;23.248;2024-02-26T13:39:25;9.25;;;4.32;;
84713;SDS011;74938;42.658;23.248;2024-02-26T13:41:51;7.57;;;3.55;;
84713;SDS011;74938;42.658;23.248;2024-02-26T13:44:17;5.78;;;3.65;;
84713;SDS011;74938;42.658;23.248;2024-02-26T13:46:43;8.18;;;3.80;;
84713;SDS011;74938;42.658;23.248;2024-02-26T13:49:08;8.52;;;3.58;;
84713;SDS011;74938;42.658;23.248;2024-02-26T13:51:34;8.88;;;3.28;;
84713;SDS011;74938;42.658;23.248;2024-02-26T13:54:00;9.27;;;4.00;;
84713;SDS011;74938;42.658;23.248;2024-02-26T13:56:26;9.73;;;4.05;;
84713;SDS011;74938;42.658;23.248;2024-02-26T13:58:52;9.15;;;4.72;;
84713;SDS011;74938;42.658;23.248;2024-02-26T14:01:17;9.43;;;4.05;;
84713;SDS011;74938;42.658;23.248;2024-02-26T14:03:42;8.40;;;3.78;;
84713;SDS011;74938;42.658;23.248;2024-02-26T14:06:08;6.88;;;3.38;;
84713;SDS011;74938;42.658;23.248;2024-02-26T14:08:33;5.82;;;3.08;;
84713;SDS011;74938;42.658;23.248;2024-02-26T14:10:59;7.63;;;3.33;;
84713;SDS011;74938;42.658;23.248;2024-02-26T14:13:25;8.65;;;3.80;;
84713;SDS011;74938;42.658;23.248;2024-02-26T14:15:50;9.60;;;3.80;;
84713;SDS011;74938;42.658;23.248;2024-02-26T14:18:16;9.45;;;4.18;;
84713;SDS011;74938;42.658;23.248;2024-02-26T14:20:41;6.35;;;3.40;;
84713;SDS011;74938;42.658;23.248;2024-02-26T14:23:07;7.30;;;3.38;;
84713;SDS011;74938;42.658;23.248;2024-02-26T14:25:33;7.05;;;2.95;;